sensor_id;sensor_type;location;lat;lon;timestamp;P1;durP1;ratioP1;P2;durP2;ratioP2
58302;SDS011;44109;52.398;7.024;2023-04-15T00:01:34;10.30;;;5.60;;
58302;SDS011;44109;52.398;7.024;2023-04-15T00:04:02;10.15;;;6.10;;
58302;SDS011;44109;52.398;7.024;2023-04-15T00:06:30;10.52;;;5.57;;
58302;SDS011;44109;52.398;7.024;2023-04-15T00:08:58;10.93;;;6.30;;
58302;SDS011;44109;52.398;7.024;2023-04-15T00:11:26;9.23;;;5.32;;
58302;SDS011;44109;52.398;7.024;2023-04-15T00:13:54;6.95;;;4.32;;
58302;SDS011;44109;52.398;7.024;2023-04-15T00:16:23;8.27;;;4.53;;
58302;SDS011;44109;52.398;7.024;2023-04-15T00:18:52;8.02;;;4.93;;
58302;SDS011;44109;52.398;7.024;2023-04-15T00:21:20;11.05;;;5.45;;
58302;SDS011;44109;52.398;7.024;2023-04-15T00:23:47;7.75;;;5.25;;
58302;SDS011;44109;52.398;7.024;2023-04-15T00:26:18;12.05;;;7.78;;
58302;SDS011;44109;52.398;7.024;2023-04-15T00:28:46;14.20;;;6.63;;
58302;SDS011;44109;52.398;7.024;2023-04-15T00:31:14;9.80;;;5.60;;
58302;SDS011;44109;52.398;7.024;2023-04-15T00:33:41;9.65;;;4.80;;
58302;SDS011;44109;52.398;7.024;2023-04-15T00:36:10;10.40;;;5.50;;
58302;SDS011;44109;52.398;7.024;2023-04-15T00:38:38;8.57;;;5.82;;
58302;SDS011;44109;52.398;7.024;2023-04-15T00:41:06;9.88;;;6.93;;
58302;SDS011;44109;52.398;7.024;2023-04-15T00:43:35;8.82;;;6.75;;
58302;SDS011;44109;52.398;7.024;2023-04-15T00:46:03;11.77;;;6.43;;
58302;SDS011;44109;52.398;7.024;2023-04-15T00:48:32;12.43;;;6.18;;
58302;SDS011;44109;52.398;7.024;2023-04-15T00:50:59;12.32;;;7.13;;
58302;SDS011;44109;52.398;7.024;2023-04-15T00:53:28;11.48;;;6.30;;
58302;SDS011;44109;52.398;7.024;2023-04-15T00:55:56;11.98;;;6.70;;
58302;SDS011;44109;52.398;7.024;2023-04-15T00:58:24;10.15;;;6.55;;
58302;SDS011;44109;52.398;7.024;2023-04-15T01:00:53;9.77;;;5.85;;
58302;SDS011;44109;52.398;7.024;2023-04-15T01:03:22;11.35;;;5.95;;
58302;SDS011;44109;52.398;7.024;2023-04-15T01:05:50;12.68;;;6.55;;
58302;SDS011;44109;52.398;7.024;2023-04-15T01:08:24;9.65;;;6.45;;
58302;SDS011;44109;52.398;7.024;2023-04-15T01:10:54;10.23;;;5.88;;
58302;SDS011;44109;52.398;7.024;2023-04-15T01:13:24;7.63;;;5.07;;
58302;SDS011;44109;52.398;7.024;2023-04-15T01:15:52;7.93;;;5.72;;
58302;SDS011;44109;52.398;7.024;2023-04-15T01:18:22;10.18;;;5.40;;
58302;SDS011;44109;52.398;7.024;2023-04-15T01:20:50;7.60;;;5.13;;
58302;SDS011;44109;52.398;7.024;2023-04-15T01:23:18;9.52;;;5.85;;
58302;SDS011;44109;52.398;7.024;2023-04-15T01:25:48;11.43;;;6.38;;
58302;SDS011;44109;52.398;7.024;2023-04-15T01:28:16;10.07;;;6.05;;
58302;SDS011;44109;52.398;7.024;2023-04-15T01:30:44;9.55;;;6.18;;
58302;SDS011;44109;52.398;7.024;2023-04-15T01:33:11;10.05;;;6.25;;
58302;SDS011;44109;52.398;7.024;2023-04-15T01:35:39;12.52;;;6.78;;
58302;SDS011;44109;52.398;7.024;2023-04-15T01:38:09;10.00;;;5.90;;
58302;SDS011;44109;52.398;7.024;2023-04-15T01:40:38;10.95;;;5.82;;
58302;SDS011;44109;52.398;7.024;2023-04-15T01:43:07;9.98;;;5.72;;
58302;SDS011;44109;52.398;7.024;2023-04-15T01:45:35;9.93;;;5.38;;
58302;SDS011;44109;52.398;7.024;2023-04-15T01:48:02;9.10;;;5.18;;
58302;SDS011;44109;52.398;7.024;2023-04-15T01:50:30;10.40;;;5.95;;
58302;SDS011;44109;52.398;7.024;2023-04-15T01:52:58;10.07;;;5.40;;
58302;SDS011;44109;52.398;7.024;2023-04-15T01:55:25;10.32;;;5.90;;
58302;SDS011;44109;52.398;7.024;2023-04-15T01:57:53;7.72;;;4.82;;
58302;SDS011;44109;52.398;7.024;2023-04-15T02:00:23;8.82;;;5.75;;
58302;SDS011;44109;52.398;7.024;2023-04-15T02:02:50;6.97;;;4.75;;
58302;SDS011;44109;52.398;7.024;2023-04-15T02:05:18;7.65;;;4.70;;
58302;SDS011;44109;52.398;7.024;2023-04-15T02:07:45;7.45;;;4.03;;
58302;SDS011;44109;52.398;7.024;2023-04-15T02:10:14;8.38;;;5.03;;
58302;SDS011;44109;52.398;7.024;2023-04-15T02:12:42;7.45;;;5.13;;
58302;SDS011;44109;52.398;7.024;2023-04-15T02:15:09;9.30;;;5.57;;
58302;SDS011;44109;52.398;7.024;2023-04-15T02:17:38;9.25;;;5.40;;
58302;SDS011;44109;52.398;7.024;2023-04-15T02:20:10;11.32;;;7.32;;
58302;SDS011;44109;52.398;7.024;2023-04-15T02:22:38;9.07;;;5.30;;
58302;SDS011;44109;52.398;7.024;2023-04-15T02:25:06;10.00;;;6.57;;
58302;SDS011;44109;52.398;7.024;2023-04-15T02:27:35;11.18;;;4.78;;
58302;SDS011;44109;52.398;7.024;2023-04-15T02:30:03;8.27;;;5.03;;
58302;SDS011;44109;52.398;7.024;2023-04-15T02:32:33;8.40;;;5.18;;
58302;SDS011;44109;52.398;7.024;2023-04-15T02:35:04;12.05;;;6.95;;
58302;SDS011;44109;52.398;7.024;2023-04-15T02:37:34;10.90;;;6.32;;
58302;SDS011;44109;52.398;7.024;2023-04-15T02:40:08;8.27;;;5.43;;
58302;SDS011;44109;52.398;7.024;2023-04-15T02:42:37;14.52;;;4.80;;
58302;SDS011;44109;52.398;7.024;2023-04-15T02:45:05;6.93;;;4.57;;
58302;SDS011;44109;52.398;7.024;2023-04-15T02:47:34;9.95;;;5.78;;
58302;SDS011;44109;52.398;7.024;2023-04-15T02:50:03;6.75;;;4.90;;
58302;SDS011;44109;52.398;7.024;2023-04-15T02:52:38;7.90;;;5.00;;
58302;SDS011;44109;52.398;7.024;2023-04-15T02:55:06;8.48;;;5.78;;
58302;SDS011;44109;52.398;7.024;2023-04-15T02:57:35;11.98;;;6.97;;
58302;SDS011;44109;52.398;7.024;2023-04-15T03:00:04;13.07;;;8.30;;
58302;SDS011;44109;52.398;7.024;2023-04-15T03:02:35;13.13;;;7.13;;
58302;SDS011;44109;52.398;7.024;2023-04-15T03:05:05;9.23;;;5.88;;
58302;SDS011;44109;52.398;7.024;2023-04-15T03:07:37;8.75;;;6.35;;
58302;SDS011;44109;52.398;7.024;2023-04-15T03:10:06;10.73;;;5.97;;
58302;SDS011;44109;52.398;7.024;2023-04-15T03:12:35;9.80;;;6.32;;
58302;SDS011;44109;52.398;7.024;2023-04-15T03:15:02;10.82;;;7.10;;
58302;SDS011;44109;52.398;7.024;2023-04-15T03:17:31;9.00;;;6.03;;
58302;SDS011;44109;52.398;7.024;2023-04-15T03:20:00;11.13;;;6.43;;
58302;SDS011;44109;52.398;7.024;2023-04-15T03:22:29;8.88;;;5.80;;
58302;SDS011;44109;52.398;7.024;2023-04-15T03:24:57;10.25;;;6.80;;
58302;SDS011;44109;52.398;7.024;2023-04-15T03:27:25;13.50;;;8.02;;
58302;SDS011;44109;52.398;7.024;2023-04-15T03:29:52;10.68;;;6.40;;
58302;SDS011;44109;52.398;7.024;2023-04-15T03:32:21;9.05;;;5.65;;
58302;SDS011;44109;52.398;7.024;2023-04-15T03:34:49;10.20;;;6.00;;
58302;SDS011;44109;52.398;7.024;2023-04-15T03:37:16;9.85;;;5.82;;
58302;SDS011;44109;52.398;7.024;2023-04-15T03:39:45;7.88;;;5.47;;
58302;SDS011;44109;52.398;7.024;2023-04-15T03:42:13;8.63;;;6.28;;
58302;SDS011;44109;52.398;7.024;2023-04-15T03:44:41;14.63;;;6.15;;
58302;SDS011;44109;52.398;7.024;2023-04-15T03:47:09;11.68;;;6.65;;
58302;SDS011;44109;52.398;7.024;2023-04-15T03:49:36;6.95;;;5.00;;
58302;SDS011;44109;52.398;7.024;2023-04-15T03:52:04;8.93;;;5.45;;
58302;SDS011;44109;52.398;7.024;2023-04-15T03:54:32;9.20;;;5.50;;
58302;SDS011;44109;52.398;7.024;2023-04-15T03:57:01;9.10;;;5.80;;
58302;SDS011;44109;52.398;7.024;2023-04-15T03:59:28;8.20;;;5.38;;
58302;SDS011;44109;52.398;7.024;2023-04-15T04:01:56;10.25;;;5.63;;
58302;SDS011;44109;52.398;7.024;2023-04-15T04:04:23;12.32;;;6.53;;
58302;SDS011;44109;52.398;7.024;2023-04-15T04:06:51;9.43;;;6.20;;
58302;SDS011;44109;52.398;7.024;2023-04-15T04:09:19;11.35;;;6.43;;
58302;SDS011;44109;52.398;7.024;2023-04-15T04:11:46;10.02;;;5.13;;
58302;SDS011;44109;52.398;7.024;2023-04-15T04:14:15;8.93;;;5.65;;
58302;SDS011;44109;52.398;7.024;2023-04-15T04:16:43;8.00;;;5.68;;
58302;SDS011;44109;52.398;7.024;2023-04-15T04:19:11;12.80;;;6.22;;
58302;SDS011;44109;52.398;7.024;2023-04-15T04:21:39;8.65;;;5.70;;
58302;SDS011;44109;52.398;7.024;2023-04-15T04:24:07;10.43;;;6.38;;
58302;SDS011;44109;52.398;7.024;2023-04-15T04:26:34;9.35;;;6.60;;
58302;SDS011;44109;52.398;7.024;2023-04-15T04:29:02;9.80;;;5.95;;
58302;SDS011;44109;52.398;7.024;2023-04-15T04:31:31;10.05;;;6.38;;
58302;SDS011;44109;52.398;7.024;2023-04-15T04:33:59;13.52;;;7.63;;
58302;SDS011;44109;52.398;7.024;2023-04-15T04:36:26;10.68;;;7.32;;
58302;SDS011;44109;52.398;7.024;2023-04-15T04:38:54;10.27;;;7.32;;
58302;SDS011;44109;52.398;7.024;2023-04-15T04:41:22;11.75;;;7.03;;
58302;SDS011;44109;52.398;7.024;2023-04-15T04:43:49;15.43;;;7.80;;
58302;SDS011;44109;52.398;7.024;2023-04-15T04:46:17;11.75;;;7.15;;
58302;SDS011;44109;52.398;7.024;2023-04-15T04:48:46;9.63;;;7.00;;
58302;SDS011;44109;52.398;7.024;2023-04-15T04:51:13;13.88;;;8.32;;
58302;SDS011;44109;52.398;7.024;2023-04-15T04:53:41;12.15;;;7.35;;
58302;SDS011;44109;52.398;7.024;2023-04-15T04:56:09;10.75;;;6.95;;
58302;SDS011;44109;52.398;7.024;2023-04-15T04:58:36;11.15;;;6.97;;
58302;SDS011;44109;52.398;7.024;2023-04-15T05:01:04;9.70;;;7.35;;
58302;SDS011;44109;52.398;7.024;2023-04-15T05:03:32;11.10;;;7.47;;
58302;SDS011;44109;52.398;7.024;2023-04-15T05:06:01;9.60;;;6.55;;
58302;SDS011;44109;52.398;7.024;2023-04-15T05:08:30;13.50;;;8.43;;
58302;SDS011;44109;52.398;7.024;2023-04-15T05:10:58;10.98;;;7.50;;
58302;SDS011;44109;52.398;7.024;2023-04-15T05:13:26;11.90;;;7.97;;
58302;SDS011;44109;52.398;7.024;2023-04-15T05:15:54;10.98;;;7.20;;
58302;SDS011;44109;52.398;7.024;2023-04-15T05:18:22;12.48;;;8.25;;
58302;SDS011;44109;52.398;7.024;2023-04-15T05:20:50;13.25;;;9.20;;
58302;SDS011;44109;52.398;7.024;2023-04-15T05:23:19;11.27;;;7.60;;
58302;SDS011;44109;52.398;7.024;2023-04-15T05:25:46;12.75;;;8.13;;
58302;SDS011;44109;52.398;7.024;2023-04-15T05:28:14;11.50;;;7.95;;
58302;SDS011;44109;52.398;7.024;2023-04-15T05:30:42;10.30;;;7.68;;
58302;SDS011;44109;52.398;7.024;2023-04-15T05:33:10;14.18;;;8.63;;
58302;SDS011;44109;52.398;7.024;2023-04-15T05:35:37;14.32;;;8.65;;
58302;SDS011;44109;52.398;7.024;2023-04-15T05:38:05;13.57;;;8.70;;
58302;SDS011;44109;52.398;7.024;2023-04-15T05:40:34;14.68;;;8.98;;
58302;SDS011;44109;52.398;7.024;2023-04-15T05:43:02;12.00;;;7.80;;
58302;SDS011;44109;52.398;7.024;2023-04-15T05:45:30;16.08;;;9.48;;
58302;SDS011;44109;52.398;7.024;2023-04-15T05:47:58;13.93;;;9.13;;
58302;SDS011;44109;52.398;7.024;2023-04-15T05:50:25;13.38;;;9.38;;
58302;SDS011;44109;52.398;7.024;2023-04-15T05:52:53;13.70;;;9.52;;
58302;SDS011;44109;52.398;7.024;2023-04-15T05:55:21;15.07;;;10.18;;
58302;SDS011;44109;52.398;7.024;2023-04-15T05:57:50;15.40;;;11.07;;
58302;SDS011;44109;52.398;7.024;2023-04-15T06:00:18;17.13;;;11.75;;
58302;SDS011;44109;52.398;7.024;2023-04-15T06:02:46;19.58;;;11.70;;
58302;SDS011;44109;52.398;7.024;2023-04-15T06:05:13;16.05;;;11.32;;
58302;SDS011;44109;52.398;7.024;2023-04-15T06:07:41;18.00;;;11.95;;
58302;SDS011;44109;52.398;7.024;2023-04-15T06:10:09;20.40;;;12.95;;
58302;SDS011;44109;52.398;7.024;2023-04-15T06:12:37;16.55;;;11.75;;
58302;SDS011;44109;52.398;7.024;2023-04-15T06:15:07;16.52;;;11.30;;
58302;SDS011;44109;52.398;7.024;2023-04-15T06:17:36;20.17;;;13.20;;
58302;SDS011;44109;52.398;7.024;2023-04-15T06:20:03;21.00;;;12.32;;
58302;SDS011;44109;52.398;7.024;2023-04-15T06:22:33;19.85;;;11.73;;
58302;SDS011;44109;52.398;7.024;2023-04-15T06:25:03;16.83;;;11.00;;
58302;SDS011;44109;52.398;7.024;2023-04-15T06:27:32;15.82;;;11.00;;
58302;SDS011;44109;52.398;7.024;2023-04-15T06:30:00;15.45;;;10.80;;
58302;SDS011;44109;52.398;7.024;2023-04-15T06:32:30;27.02;;;14.02;;
58302;SDS011;44109;52.398;7.024;2023-04-15T06:34:58;21.05;;;12.73;;
58302;SDS011;44109;52.398;7.024;2023-04-15T06:37:26;20.77;;;13.18;;
58302;SDS011;44109;52.398;7.024;2023-04-15T06:40:08;20.35;;;11.77;;
58302;SDS011;44109;52.398;7.024;2023-04-15T06:42:36;19.05;;;12.43;;
58302;SDS011;44109;52.398;7.024;2023-04-15T06:45:04;20.70;;;11.73;;
58302;SDS011;44109;52.398;7.024;2023-04-15T06:47:34;18.77;;;13.10;;
58302;SDS011;44109;52.398;7.024;2023-04-15T06:50:02;22.67;;;13.60;;
58302;SDS011;44109;52.398;7.024;2023-04-15T06:52:31;20.85;;;13.25;;
58302;SDS011;44109;52.398;7.024;2023-04-15T06:54:59;22.48;;;12.98;;
58302;SDS011;44109;52.398;7.024;2023-04-15T06:57:27;18.30;;;11.55;;
58302;SDS011;44109;52.398;7.024;2023-04-15T06:59:55;19.67;;;12.63;;
58302;SDS011;44109;52.398;7.024;2023-04-15T07:02:23;22.25;;;14.02;;
58302;SDS011;44109;52.398;7.024;2023-04-15T07:04:52;19.80;;;12.88;;
58302;SDS011;44109;52.398;7.024;2023-04-15T07:07:20;20.30;;;11.77;;
58302;SDS011;44109;52.398;7.024;2023-04-15T07:09:48;20.60;;;11.88;;
58302;SDS011;44109;52.398;7.024;2023-04-15T07:12:15;20.20;;;12.25;;
58302;SDS011;44109;52.398;7.024;2023-04-15T07:14:43;20.65;;;11.88;;
58302;SDS011;44109;52.398;7.024;2023-04-15T07:17:10;24.50;;;12.75;;
58302;SDS011;44109;52.398;7.024;2023-04-15T07:19:38;17.23;;;12.07;;
58302;SDS011;44109;52.398;7.024;2023-04-15T07:22:07;19.27;;;11.60;;
58302;SDS011;44109;52.398;7.024;2023-04-15T07:24:35;17.13;;;10.70;;
58302;SDS011;44109;52.398;7.024;2023-04-15T07:27:02;20.20;;;12.15;;
58302;SDS011;44109;52.398;7.024;2023-04-15T07:29:30;18.35;;;11.02;;
58302;SDS011;44109;52.398;7.024;2023-04-15T07:31:58;15.43;;;9.75;;
58302;SDS011;44109;52.398;7.024;2023-04-15T07:34:26;17.05;;;10.18;;
58302;SDS011;44109;52.398;7.024;2023-04-15T07:36:54;16.38;;;10.48;;
58302;SDS011;44109;52.398;7.024;2023-04-15T07:39:23;13.05;;;9.40;;
58302;SDS011;44109;52.398;7.024;2023-04-15T07:41:51;16.38;;;10.98;;
58302;SDS011;44109;52.398;7.024;2023-04-15T07:44:19;13.82;;;10.07;;
58302;SDS011;44109;52.398;7.024;2023-04-15T07:46:46;16.30;;;9.93;;
58302;SDS011;44109;52.398;7.024;2023-04-15T07:49:14;16.25;;;9.82;;
58302;SDS011;44109;52.398;7.024;2023-04-15T07:51:44;15.50;;;10.02;;
58302;SDS011;44109;52.398;7.024;2023-04-15T07:54:11;11.85;;;7.78;;
58302;SDS011;44109;52.398;7.024;2023-04-15T07:56:40;13.20;;;8.20;;
58302;SDS011;44109;52.398;7.024;2023-04-15T07:59:08;13.40;;;9.18;;
58302;SDS011;44109;52.398;7.024;2023-04-15T08:01:36;13.10;;;8.23;;
58302;SDS011;44109;52.398;7.024;2023-04-15T08:04:04;13.50;;;8.32;;
58302;SDS011;44109;52.398;7.024;2023-04-15T08:06:31;12.73;;;8.82;;
58302;SDS011;44109;52.398;7.024;2023-04-15T08:08:59;11.95;;;7.68;;
58302;SDS011;44109;52.398;7.024;2023-04-15T08:11:27;15.88;;;9.07;;
58302;SDS011;44109;52.398;7.024;2023-04-15T08:13:56;9.85;;;7.03;;
58302;SDS011;44109;52.398;7.024;2023-04-15T08:16:24;13.82;;;9.20;;
58302;SDS011;44109;52.398;7.024;2023-04-15T08:18:54;15.13;;;9.48;;
58302;SDS011;44109;52.398;7.024;2023-04-15T08:21:23;11.43;;;7.00;;
58302;SDS011;44109;52.398;7.024;2023-04-15T08:23:51;12.90;;;7.95;;
58302;SDS011;44109;52.398;7.024;2023-04-15T08:26:19;12.23;;;8.13;;
58302;SDS011;44109;52.398;7.024;2023-04-15T08:28:47;11.73;;;7.28;;
58302;SDS011;44109;52.398;7.024;2023-04-15T08:31:17;9.65;;;6.40;;
58302;SDS011;44109;52.398;7.024;2023-04-15T08:33:45;9.77;;;6.55;;
58302;SDS011;44109;52.398;7.024;2023-04-15T08:36:13;7.90;;;6.22;;
58302;SDS011;44109;52.398;7.024;2023-04-15T08:38:41;11.77;;;6.50;;
58302;SDS011;44109;52.398;7.024;2023-04-15T08:41:10;11.10;;;6.57;;
58302;SDS011;44109;52.398;7.024;2023-04-15T08:43:48;7.97;;;5.72;;
58302;SDS011;44109;52.398;7.024;2023-04-15T08:46:21;9.90;;;6.22;;
58302;SDS011;44109;52.398;7.024;2023-04-15T08:48:49;6.72;;;5.45;;
58302;SDS011;44109;52.398;7.024;2023-04-15T08:51:18;7.85;;;5.68;;
58302;SDS011;44109;52.398;7.024;2023-04-15T08:53:47;8.05;;;5.40;;
58302;SDS011;44109;52.398;7.024;2023-04-15T08:56:16;7.57;;;5.15;;
58302;SDS011;44109;52.398;7.024;2023-04-15T08:58:49;7.53;;;4.80;;
58302;SDS011;44109;52.398;7.024;2023-04-15T09:01:17;8.80;;;5.88;;
58302;SDS011;44109;52.398;7.024;2023-04-15T09:03:46;9.45;;;4.80;;
58302;SDS011;44109;52.398;7.024;2023-04-15T09:06:16;7.13;;;4.57;;
58302;SDS011;44109;52.398;7.024;2023-04-15T09:08:44;7.28;;;4.55;;
58302;SDS011;44109;52.398;7.024;2023-04-15T09:11:12;8.45;;;4.43;;
58302;SDS011;44109;52.398;7.024;2023-04-15T09:13:39;8.35;;;4.80;;
58302;SDS011;44109;52.398;7.024;2023-04-15T09:16:07;7.07;;;3.95;;
58302;SDS011;44109;52.398;7.024;2023-04-15T09:18:35;7.70;;;4.43;;
58302;SDS011;44109;52.398;7.024;2023-04-15T09:21:07;6.55;;;4.20;;
58302;SDS011;44109;52.398;7.024;2023-04-15T09:23:40;5.43;;;3.92;;
58302;SDS011;44109;52.398;7.024;2023-04-15T09:26:29;6.03;;;4.13;;
58302;SDS011;44109;52.398;7.024;2023-04-15T09:29:02;6.53;;;4.25;;
58302;SDS011;44109;52.398;7.024;2023-04-15T09:31:32;6.20;;;3.95;;
58302;SDS011;44109;52.398;7.024;2023-04-15T09:34:00;7.15;;;4.63;;
58302;SDS011;44109;52.398;7.024;2023-04-15T09:36:29;6.10;;;4.35;;
58302;SDS011;44109;52.398;7.024;2023-04-15T09:39:18;6.68;;;4.13;;
58302;SDS011;44109;52.398;7.024;2023-04-15T09:41:46;5.53;;;4.18;;
58302;SDS011;44109;52.398;7.024;2023-04-15T09:44:21;5.85;;;4.07;;
58302;SDS011;44109;52.398;7.024;2023-04-15T09:46:49;7.45;;;4.20;;
58302;SDS011;44109;52.398;7.024;2023-04-15T09:49:17;5.50;;;3.67;;
58302;SDS011;44109;52.398;7.024;2023-04-15T09:51:46;6.95;;;3.95;;
58302;SDS011;44109;52.398;7.024;2023-04-15T09:54:17;7.47;;;4.40;;
58302;SDS011;44109;52.398;7.024;2023-04-15T09:56:46;5.75;;;4.20;;
58302;SDS011;44109;52.398;7.024;2023-04-15T09:59:14;7.13;;;3.97;;
58302;SDS011;44109;52.398;7.024;2023-04-15T10:01:42;6.15;;;3.70;;
58302;SDS011;44109;52.398;7.024;2023-04-15T10:04:11;7.20;;;3.72;;
58302;SDS011;44109;52.398;7.024;2023-04-15T10:06:39;5.57;;;3.65;;
58302;SDS011;44109;52.398;7.024;2023-04-15T10:09:08;6.13;;;3.63;;
58302;SDS011;44109;52.398;7.024;2023-04-15T10:11:36;3.55;;;2.47;;
58302;SDS011;44109;52.398;7.024;2023-04-15T10:14:04;6.25;;;3.28;;
58302;SDS011;44109;52.398;7.024;2023-04-15T10:16:34;5.03;;;3.22;;
58302;SDS011;44109;52.398;7.024;2023-04-15T10:19:07;4.32;;;2.90;;
58302;SDS011;44109;52.398;7.024;2023-04-15T10:21:36;5.57;;;3.00;;
58302;SDS011;44109;52.398;7.024;2023-04-15T10:24:06;4.47;;;3.22;;
58302;SDS011;44109;52.398;7.024;2023-04-15T10:26:35;5.47;;;3.40;;
58302;SDS011;44109;52.398;7.024;2023-04-15T10:29:04;5.40;;;3.15;;
58302;SDS011;44109;52.398;7.024;2023-04-15T10:31:32;5.18;;;2.72;;
58302;SDS011;44109;52.398;7.024;2023-04-15T10:34:03;5.05;;;3.25;;
58302;SDS011;44109;52.398;7.024;2023-04-15T10:36:32;3.80;;;2.50;;
58302;SDS011;44109;52.398;7.024;2023-04-15T10:38:59;4.65;;;2.67;;
58302;SDS011;44109;52.398;7.024;2023-04-15T10:41:29;3.45;;;2.42;;
58302;SDS011;44109;52.398;7.024;2023-04-15T10:43:59;3.42;;;2.30;;
58302;SDS011;44109;52.398;7.024;2023-04-15T10:46:33;2.90;;;2.15;;
58302;SDS011;44109;52.398;7.024;2023-04-15T10:49:07;4.43;;;2.65;;
58302;SDS011;44109;52.398;7.024;2023-04-15T10:51:37;4.28;;;2.47;;
58302;SDS011;44109;52.398;7.024;2023-04-15T10:54:08;3.50;;;2.45;;
58302;SDS011;44109;52.398;7.024;2023-04-15T10:56:42;4.32;;;2.90;;
58302;SDS011;44109;52.398;7.024;2023-04-15T10:59:10;3.33;;;2.15;;
58302;SDS011;44109;52.398;7.024;2023-04-15T11:01:51;6.13;;;2.97;;
58302;SDS011;44109;52.398;7.024;2023-04-15T11:07:34;4.72;;;2.63;;
58302;SDS011;44109;52.398;7.024;2023-04-15T11:10:12;3.58;;;2.40;;
58302;SDS011;44109;52.398;7.024;2023-04-15T11:13:23;4.00;;;2.13;;
58302;SDS011;44109;52.398;7.024;2023-04-15T11:15:54;3.53;;;2.30;;
58302;SDS011;44109;52.398;7.024;2023-04-15T11:18:30;4.83;;;2.13;;
58302;SDS011;44109;52.398;7.024;2023-04-15T11:23:31;3.25;;;2.10;;
58302;SDS011;44109;52.398;7.024;2023-04-15T11:26:02;4.15;;;2.40;;
58302;SDS011;44109;52.398;7.024;2023-04-15T11:28:35;4.95;;;2.95;;
58302;SDS011;44109;52.398;7.024;2023-04-15T11:31:08;3.13;;;2.00;;
58302;SDS011;44109;52.398;7.024;2023-04-15T11:33:43;3.13;;;2.10;;
58302;SDS011;44109;52.398;7.024;2023-04-15T11:36:13;6.38;;;2.83;;
58302;SDS011;44109;52.398;7.024;2023-04-15T11:38:41;6.53;;;2.88;;
58302;SDS011;44109;52.398;7.024;2023-04-15T11:41:10;3.67;;;2.10;;
58302;SDS011;44109;52.398;7.024;2023-04-15T11:43:40;3.92;;;2.30;;
58302;SDS011;44109;52.398;7.024;2023-04-15T11:46:08;2.80;;;2.10;;
58302;SDS011;44109;52.398;7.024;2023-04-15T11:48:35;5.00;;;2.25;;
58302;SDS011;44109;52.398;7.024;2023-04-15T11:51:08;5.38;;;2.33;;
58302;SDS011;44109;52.398;7.024;2023-04-15T11:53:40;4.15;;;2.45;;
58302;SDS011;44109;52.398;7.024;2023-04-15T11:56:15;5.53;;;2.10;;
58302;SDS011;44109;52.398;7.024;2023-04-15T11:58:47;3.33;;;1.98;;
58302;SDS011;44109;52.398;7.024;2023-04-15T12:01:18;3.78;;;2.10;;
58302;SDS011;44109;52.398;7.024;2023-04-15T12:03:46;3.58;;;2.13;;
58302;SDS011;44109;52.398;7.024;2023-04-15T12:06:15;3.53;;;2.30;;
58302;SDS011;44109;52.398;7.024;2023-04-15T12:08:58;4.18;;;2.10;;
58302;SDS011;44109;52.398;7.024;2023-04-15T12:11:39;6.78;;;2.72;;
58302;SDS011;44109;52.398;7.024;2023-04-15T12:14:15;4.63;;;2.30;;
58302;SDS011;44109;52.398;7.024;2023-04-15T12:16:48;3.80;;;2.50;;
58302;SDS011;44109;52.398;7.024;2023-04-15T12:19:21;5.97;;;2.63;;
58302;SDS011;44109;52.398;7.024;2023-04-15T12:21:52;6.47;;;2.67;;
58302;SDS011;44109;52.398;7.024;2023-04-15T12:24:25;4.18;;;2.10;;
58302;SDS011;44109;52.398;7.024;2023-04-15T12:26:54;3.70;;;2.05;;
58302;SDS011;44109;52.398;7.024;2023-04-15T12:29:25;4.03;;;2.33;;
58302;SDS011;44109;52.398;7.024;2023-04-15T12:31:55;3.00;;;2.03;;
58302;SDS011;44109;52.398;7.024;2023-04-15T12:34:25;4.60;;;2.33;;
58302;SDS011;44109;52.398;7.024;2023-04-15T12:36:55;5.78;;;2.75;;
58302;SDS011;44109;52.398;7.024;2023-04-15T12:39:26;2.80;;;1.70;;
58302;SDS011;44109;52.398;7.024;2023-04-15T12:41:56;2.92;;;1.65;;
58302;SDS011;44109;52.398;7.024;2023-04-15T12:44:25;2.50;;;1.73;;
58302;SDS011;44109;52.398;7.024;2023-04-15T12:46:53;2.35;;;1.60;;
58302;SDS011;44109;52.398;7.024;2023-04-15T12:49:22;4.68;;;1.90;;
58302;SDS011;44109;52.398;7.024;2023-04-15T12:51:51;3.47;;;1.50;;
58302;SDS011;44109;52.398;7.024;2023-04-15T12:54:31;3.20;;;1.40;;
58302;SDS011;44109;52.398;7.024;2023-04-15T12:56:59;5.18;;;1.70;;
58302;SDS011;44109;52.398;7.024;2023-04-15T12:59:29;3.20;;;1.98;;
58302;SDS011;44109;52.398;7.024;2023-04-15T13:01:57;3.08;;;1.52;;
58302;SDS011;44109;52.398;7.024;2023-04-15T13:04:25;3.35;;;1.92;;
58302;SDS011;44109;52.398;7.024;2023-04-15T13:06:55;9.85;;;1.90;;
58302;SDS011;44109;52.398;7.024;2023-04-15T13:09:23;3.78;;;1.65;;
58302;SDS011;44109;52.398;7.024;2023-04-15T13:11:50;1.98;;;1.40;;
58302;SDS011;44109;52.398;7.024;2023-04-15T13:14:19;4.55;;;2.38;;
58302;SDS011;44109;52.398;7.024;2023-04-15T13:16:48;5.22;;;1.73;;
58302;SDS011;44109;52.398;7.024;2023-04-15T13:19:15;5.03;;;1.80;;
58302;SDS011;44109;52.398;7.024;2023-04-15T13:21:43;4.53;;;1.67;;
58302;SDS011;44109;52.398;7.024;2023-04-15T13:24:10;3.20;;;2.08;;
58302;SDS011;44109;52.398;7.024;2023-04-15T13:26:38;5.50;;;1.50;;
58302;SDS011;44109;52.398;7.024;2023-04-15T13:29:06;2.72;;;1.52;;
58302;SDS011;44109;52.398;7.024;2023-04-15T13:31:34;3.25;;;2.00;;
58302;SDS011;44109;52.398;7.024;2023-04-15T13:34:03;4.75;;;1.70;;
58302;SDS011;44109;52.398;7.024;2023-04-15T13:36:31;3.13;;;1.50;;
58302;SDS011;44109;52.398;7.024;2023-04-15T13:38:58;3.95;;;2.00;;
58302;SDS011;44109;52.398;7.024;2023-04-15T13:41:26;4.88;;;1.70;;
58302;SDS011;44109;52.398;7.024;2023-04-15T13:43:54;3.25;;;1.70;;
58302;SDS011;44109;52.398;7.024;2023-04-15T13:46:23;4.47;;;1.80;;
58302;SDS011;44109;52.398;7.024;2023-04-15T13:48:51;3.58;;;1.60;;
58302;SDS011;44109;52.398;7.024;2023-04-15T13:51:20;4.38;;;1.55;;
58302;SDS011;44109;52.398;7.024;2023-04-15T13:53:48;2.30;;;1.63;;
58302;SDS011;44109;52.398;7.024;2023-04-15T13:56:16;3.40;;;1.60;;
58302;SDS011;44109;52.398;7.024;2023-04-15T13:58:43;3.88;;;1.50;;
58302;SDS011;44109;52.398;7.024;2023-04-15T14:01:11;3.42;;;1.95;;
58302;SDS011;44109;52.398;7.024;2023-04-15T14:03:39;3.90;;;2.13;;
58302;SDS011;44109;52.398;7.024;2023-04-15T14:06:06;2.97;;;1.83;;
58302;SDS011;44109;52.398;7.024;2023-04-15T14:08:36;3.08;;;1.85;;
58302;SDS011;44109;52.398;7.024;2023-04-15T14:11:03;1.92;;;1.50;;
58302;SDS011;44109;52.398;7.024;2023-04-15T14:13:32;2.50;;;1.70;;
58302;SDS011;44109;52.398;7.024;2023-04-15T14:15:59;2.22;;;1.40;;
58302;SDS011;44109;52.398;7.024;2023-04-15T14:18:27;2.67;;;1.17;;
58302;SDS011;44109;52.398;7.024;2023-04-15T14:20:55;2.95;;;1.63;;
58302;SDS011;44109;52.398;7.024;2023-04-15T14:23:23;2.08;;;1.20;;
58302;SDS011;44109;52.398;7.024;2023-04-15T14:25:52;2.58;;;1.40;;
58302;SDS011;44109;52.398;7.024;2023-04-15T14:28:19;4.43;;;1.40;;
58302;SDS011;44109;52.398;7.024;2023-04-15T14:30:47;2.63;;;1.50;;
58302;SDS011;44109;52.398;7.024;2023-04-15T14:33:15;3.92;;;1.48;;
58302;SDS011;44109;52.398;7.024;2023-04-15T14:35:43;3.92;;;1.13;;
58302;SDS011;44109;52.398;7.024;2023-04-15T14:38:10;2.38;;;1.40;;
58302;SDS011;44109;52.398;7.024;2023-04-15T14:40:39;3.03;;;1.42;;
58302;SDS011;44109;52.398;7.024;2023-04-15T14:43:09;4.88;;;1.80;;
58302;SDS011;44109;52.398;7.024;2023-04-15T14:45:36;2.40;;;1.70;;
58302;SDS011;44109;52.398;7.024;2023-04-15T14:48:04;4.30;;;2.80;;
58302;SDS011;44109;52.398;7.024;2023-04-15T14:50:34;3.00;;;1.88;;
58302;SDS011;44109;52.398;7.024;2023-04-15T14:53:02;4.40;;;2.35;;
58302;SDS011;44109;52.398;7.024;2023-04-15T14:55:29;2.65;;;2.13;;
58302;SDS011;44109;52.398;7.024;2023-04-15T14:57:57;3.45;;;2.00;;